createdAt,value
2018-04-13T00:00:55.210Z,45.00
2018-04-13T00:01:57.715Z,45.00
2018-04-13T00:03:00.264Z,44.90
2018-04-13T00:04:03.298Z,44.80
2018-04-13T00:05:05.824Z,44.80
2018-04-13T00:06:08.334Z,44.70
2018-04-13T00:07:10.862Z,45.00
2018-04-13T00:08:13.405Z,45.90
2018-04-13T00:09:16.681Z,44.80
2018-04-13T00:10:19.958Z,44.90
2018-04-13T00:11:23.232Z,44.90
2018-04-13T00:12:25.738Z,44.90
2018-04-13T00:13:28.301Z,44.90
2018-04-13T00:14:30.863Z,44.90
2018-04-13T00:15:33.379Z,44.90
2018-04-13T00:16:35.890Z,44.90
2018-04-13T00:17:38.398Z,45.00
2018-04-13T00:18:40.903Z,45.00
2018-04-13T00:19:44.178Z,45.00
2018-04-13T00:20:47.450Z,45.70
2018-04-13T00:21:49.959Z,45.00
2018-04-13T00:22:52.507Z,45.10
2018-04-13T00:23:55.807Z,45.10
2018-04-13T00:24:58.310Z,45.00
2018-04-13T00:26:00.810Z,45.10
2018-04-13T00:27:04.069Z,45.20
2018-04-13T00:28:07.617Z,45.20
2018-04-13T00:29:10.234Z,45.10
2018-04-13T00:30:12.853Z,45.00
2018-04-13T00:31:15.398Z,45.10
2018-04-13T00:32:18.698Z,45.10
2018-04-13T00:33:21.199Z,45.00
2018-04-13T00:34:23.690Z,45.80
2018-04-13T00:35:26.197Z,45.10
2018-04-13T00:36:28.724Z,45.10
2018-04-13T00:37:31.229Z,45.00
2018-04-13T00:38:33.796Z,45.10
2018-04-13T00:39:36.287Z,45.20
2018-04-13T00:40:38.788Z,45.10
2018-04-13T00:41:42.074Z,45.80
2018-04-13T00:42:45.330Z,44.70
2018-04-13T00:43:47.823Z,45.00
2018-04-13T00:44:51.098Z,45.10
2018-04-13T00:45:53.706Z,45.00
2018-04-13T00:46:56.215Z,45.10
2018-04-13T00:47:58.840Z,45.20
2018-04-13T00:49:01.387Z,45.30
2018-04-13T00:50:04.650Z,45.30
2018-04-13T00:51:07.230Z,45.30
2018-04-13T00:52:10.525Z,45.30
2018-04-13T00:53:24.962Z,45.20
2018-04-13T00:54:28.242Z,45.20
2018-04-13T00:55:31.549Z,45.10
2018-04-13T00:56:34.076Z,45.10
2018-04-13T00:57:36.593Z,45.20
2018-04-13T00:58:39.106Z,45.30
2018-04-13T00:59:41.630Z,45.20
2018-04-13T01:00:44.195Z,45.50
2018-04-13T01:01:46.698Z,45.00
2018-04-13T01:02:49.212Z,45.10
2018-04-13T01:03:51.710Z,45.20
2018-04-13T01:04:54.208Z,45.10
2018-04-13T01:05:57.471Z,45.20
2018-04-13T01:06:59.966Z,45.20
2018-04-13T01:08:03.223Z,45.10
2018-04-13T01:09:05.738Z,45.00
2018-04-13T01:10:08.249Z,45.10
2018-04-13T01:11:10.850Z,45.20
2018-04-13T01:12:14.175Z,45.10
2018-04-13T01:13:16.675Z,45.10
2018-04-13T01:14:19.226Z,45.10
2018-04-13T01:15:21.736Z,45.30
2018-04-13T01:16:24.236Z,45.20
2018-04-13T01:17:26.747Z,45.10
2018-04-13T01:18:30.010Z,45.30
2018-04-13T01:19:32.516Z,45.30
2018-04-13T01:20:35.012Z,45.20
2018-04-13T01:21:37.536Z,45.30
2018-04-13T01:22:40.806Z,45.30
2018-04-13T01:23:43.388Z,45.30
2018-04-13T01:24:45.943Z,45.30
2018-04-13T01:25:49.213Z,45.30
2018-04-13T01:26:51.718Z,45.30
2018-04-13T01:27:54.272Z,45.20
2018-04-13T01:28:56.835Z,45.30
2018-04-13T01:30:00.130Z,45.30
2018-04-13T01:31:02.634Z,45.30
2018-04-13T01:32:05.130Z,45.30
2018-04-13T01:33:07.631Z,45.40
2018-04-13T01:34:10.190Z,45.30
2018-04-13T01:35:12.703Z,45.30
2018-04-13T01:36:15.332Z,46.00
2018-04-13T01:37:17.833Z,45.30
2018-04-13T01:38:20.342Z,45.20
2018-04-13T01:39:23.645Z,45.40
2018-04-13T01:40:26.207Z,45.30
2018-04-13T01:41:28.779Z,45.30
2018-04-13T01:42:31.328Z,45.70
2018-04-13T01:43:34.602Z,45.70
2018-04-13T01:44:37.871Z,45.50
2018-04-13T01:45:40.370Z,45.40
2018-04-13T01:46:42.873Z,45.40
2018-04-13T01:47:45.367Z,45.50
2018-04-13T01:48:47.868Z,45.60
2018-04-13T01:49:50.378Z,45.50
2018-04-13T01:50:52.887Z,45.70
2018-04-13T01:51:56.155Z,45.70
2018-04-13T01:52:59.432Z,45.70
2018-04-13T01:54:01.938Z,45.70
2018-04-13T01:55:04.479Z,45.40
2018-04-13T01:56:07.767Z,45.60
2018-04-13T01:57:11.047Z,45.40
2018-04-13T01:58:14.315Z,45.40
2018-04-13T01:59:16.814Z,45.40
2018-04-13T02:00:19.341Z,45.60
2018-04-13T02:01:21.865Z,45.40
2018-04-13T02:02:24.378Z,45.50
2018-04-13T02:03:26.893Z,45.40
2018-04-13T02:04:29.399Z,45.40
2018-04-13T02:05:32.667Z,45.40
2018-04-13T02:06:35.197Z,45.50
2018-04-13T02:07:37.737Z,45.60
2018-04-13T02:08:40.994Z,45.70
2018-04-13T02:09:43.497Z,45.70
2018-04-13T02:10:45.999Z,45.60
2018-04-13T02:11:48.544Z,45.40
2018-04-13T02:12:51.090Z,45.50
2018-04-13T02:13:53.624Z,45.50
2018-04-13T02:14:57.653Z,45.40
2018-04-13T02:16:00.919Z,45.50
2018-04-13T02:17:04.206Z,45.30
2018-04-13T02:18:07.483Z,45.60
2018-04-13T02:19:10.057Z,45.30
2018-04-13T02:20:13.320Z,45.70
2018-04-13T02:21:15.811Z,45.60
2018-04-13T02:22:19.092Z,45.70
2018-04-13T02:23:22.502Z,45.60
2018-04-13T02:24:25.019Z,45.60
2018-04-13T02:25:27.518Z,45.70
2018-04-13T02:26:30.807Z,45.60
2018-04-13T02:27:33.335Z,45.60
2018-04-13T02:28:35.875Z,45.60
2018-04-13T02:29:38.401Z,45.60
2018-04-13T02:30:40.902Z,45.70
2018-04-13T02:31:43.398Z,45.70
2018-04-13T02:32:45.902Z,45.60
2018-04-13T02:33:48.423Z,45.70
2018-04-13T02:34:51.032Z,45.80
2018-04-13T02:35:53.553Z,45.80
2018-04-13T02:36:56.059Z,45.80
2018-04-13T02:37:58.596Z,45.90
2018-04-13T02:39:02.635Z,45.80
2018-04-13T02:40:05.157Z,45.80
2018-04-13T02:41:07.664Z,45.80
2018-04-13T02:42:10.171Z,45.70
2018-04-13T02:43:12.673Z,45.70
2018-04-13T02:44:15.968Z,45.70
2018-04-13T02:45:18.485Z,45.50
2018-04-13T02:46:21.001Z,45.70
2018-04-13T02:47:24.278Z,45.90
2018-04-13T02:48:27.540Z,45.80
2018-04-13T02:49:30.079Z,46.40
2018-04-13T02:50:32.678Z,45.70
2018-04-13T02:51:35.202Z,45.60
2018-04-13T02:52:37.710Z,45.50
2018-04-13T02:53:40.988Z,45.70
2018-04-13T02:54:43.492Z,45.60
2018-04-13T02:55:46.011Z,45.90
2018-04-13T02:56:48.628Z,45.70
2018-04-13T02:57:51.130Z,45.80
2018-04-13T02:58:53.656Z,45.70
2018-04-13T02:59:56.175Z,45.70
2018-04-13T03:00:58.791Z,45.80
2018-04-13T03:02:01.302Z,45.80
2018-04-13T03:03:03.930Z,45.60
2018-04-13T03:04:06.426Z,45.50
2018-04-13T03:05:08.957Z,45.60
2018-04-13T03:06:11.465Z,45.50
2018-04-13T03:07:14.003Z,45.60
2018-04-13T03:08:16.502Z,45.80
2018-04-13T03:09:19.121Z,45.80
2018-04-13T03:10:21.638Z,45.80
2018-04-13T03:11:24.139Z,45.70
2018-04-13T03:12:26.652Z,45.50
2018-04-13T03:13:29.168Z,45.40
2018-04-13T03:14:32.455Z,45.40
2018-04-13T03:15:34.986Z,45.40
2018-04-13T03:16:38.337Z,45.50
2018-04-13T03:17:40.869Z,45.60
2018-04-13T03:18:44.147Z,45.30
2018-04-13T03:19:47.420Z,45.30
2018-04-13T03:20:50.691Z,45.30
2018-04-13T03:21:53.197Z,45.30
2018-04-13T03:22:55.702Z,45.40
2018-04-13T03:23:58.216Z,45.50
2018-04-13T03:25:00.782Z,45.40
2018-04-13T03:26:03.294Z,45.40
2018-04-13T03:27:05.816Z,45.30
2018-04-13T03:28:08.317Z,45.20
2018-04-13T03:29:10.859Z,45.30
2018-04-13T03:30:13.350Z,45.20
2018-04-13T03:31:15.869Z,45.20
2018-04-13T03:32:19.152Z,45.20
2018-04-13T03:33:22.402Z,45.10
2018-04-13T03:34:24.923Z,45.10
2018-04-13T03:35:27.475Z,45.10
2018-04-13T03:36:30.010Z,45.10
2018-04-13T03:37:32.518Z,45.10
2018-04-13T03:38:35.059Z,45.30
2018-04-13T03:39:38.326Z,45.30
2018-04-13T03:40:40.825Z,45.30
2018-04-13T03:41:43.343Z,45.20
2018-04-13T03:42:45.845Z,45.10
2018-04-13T03:43:49.121Z,45.10
2018-04-13T03:44:52.406Z,45.20
2018-04-13T03:45:55.669Z,45.30
2018-04-13T03:46:58.260Z,45.30
2018-04-13T03:48:01.527Z,45.30
2018-04-13T03:49:04.943Z,45.70
2018-04-13T03:50:07.507Z,45.30
2018-04-13T03:51:10.019Z,45.20
2018-04-13T03:52:12.536Z,45.20
2018-04-13T03:53:15.050Z,45.00
2018-04-13T03:54:17.671Z,45.10
2018-04-13T03:55:20.186Z,45.10
2018-04-13T03:56:22.703Z,45.00
2018-04-13T03:57:25.199Z,45.00
2018-04-13T03:58:27.699Z,45.00
2018-04-13T03:59:30.982Z,45.20
2018-04-13T04:00:33.472Z,44.90
2018-04-13T04:01:36.732Z,45.00
2018-04-13T04:02:39.438Z,45.00
2018-04-13T04:03:41.950Z,44.90
2018-04-13T04:04:44.510Z,44.90
2018-04-13T04:05:47.041Z,44.90
2018-04-13T04:06:49.591Z,44.90
2018-04-13T04:07:52.099Z,44.90
2018-04-13T04:08:54.598Z,45.10
2018-04-13T04:09:57.106Z,45.10
2018-04-13T04:10:59.674Z,45.20
2018-04-13T04:12:02.191Z,45.20
2018-04-13T04:13:04.701Z,45.20
2018-04-13T04:14:07.193Z,45.20
2018-04-13T04:15:09.692Z,45.40
2018-04-13T04:16:12.983Z,45.50
2018-04-13T04:17:16.282Z,45.40
2018-04-13T04:18:18.796Z,45.30
2018-04-13T04:19:33.207Z,45.20
2018-04-13T04:20:47.776Z,45.20
2018-04-13T04:22:02.054Z,45.10
2018-04-13T04:23:16.298Z,45.10
2018-04-13T04:24:42.327Z,45.10
2018-04-13T04:25:59.154Z,45.10
2018-04-13T04:27:01.667Z,45.10
2018-04-13T04:28:04.267Z,45.20
2018-04-13T04:29:07.551Z,45.30
2018-04-13T04:30:10.855Z,45.40
2018-04-13T04:31:13.358Z,45.40
2018-04-13T04:32:15.889Z,45.40
2018-04-13T04:33:18.402Z,45.50
2018-04-13T04:34:20.907Z,45.60
2018-04-13T04:35:23.461Z,45.80
2018-04-13T04:36:26.733Z,46.10
2018-04-13T04:37:30.032Z,46.00
2018-04-13T04:38:32.549Z,45.90
2018-04-13T04:39:35.054Z,45.90
2018-04-13T04:40:38.326Z,45.90
2018-04-13T04:41:41.587Z,45.80
2018-04-13T04:42:44.206Z,45.80
2018-04-13T04:43:46.721Z,45.70
2018-04-13T04:44:49.358Z,45.70
2018-04-13T04:45:51.856Z,45.60
2018-04-13T04:46:54.370Z,45.40
2018-04-13T04:47:56.868Z,45.50
2018-04-13T04:48:59.401Z,45.60
2018-04-13T04:50:01.947Z,45.60
2018-04-13T04:51:05.225Z,45.60
2018-04-13T04:52:08.515Z,45.70
2018-04-13T04:53:11.804Z,45.80
2018-04-13T04:54:15.067Z,45.80
2018-04-13T04:55:17.582Z,45.80
2018-04-13T04:56:20.106Z,45.80
2018-04-13T04:57:23.418Z,45.80
2018-04-13T04:58:25.932Z,45.80
2018-04-13T04:59:28.439Z,45.60
2018-04-13T05:00:31.718Z,45.60
2018-04-13T05:01:34.990Z,45.50
2018-04-13T05:02:38.285Z,45.50
2018-04-13T05:03:41.541Z,45.60
2018-04-13T05:04:44.158Z,45.60
2018-04-13T05:05:46.663Z,46.00
2018-04-13T05:06:49.178Z,46.30
2018-04-13T05:07:51.694Z,46.10
2018-04-13T05:08:55.853Z,45.80
2018-04-13T05:09:58.358Z,45.80
2018-04-13T05:11:00.859Z,45.80
2018-04-13T05:12:04.125Z,45.70
2018-04-13T05:13:07.435Z,45.80
2018-04-13T05:14:09.961Z,45.60
2018-04-13T05:15:12.459Z,45.60
2018-04-13T05:16:15.727Z,45.60
2018-04-13T05:17:18.227Z,45.60
2018-04-13T05:18:20.719Z,45.60
2018-04-13T05:19:23.234Z,45.60
2018-04-13T05:20:26.523Z,46.00
2018-04-13T05:21:29.805Z,46.10
2018-04-13T05:22:33.097Z,45.90
2018-04-13T05:23:35.655Z,45.90
2018-04-13T05:24:38.932Z,46.00
2018-04-13T05:25:42.191Z,46.00
2018-04-13T05:26:44.704Z,45.90
2018-04-13T05:27:47.206Z,45.90
2018-04-13T05:28:49.722Z,45.80
2018-04-13T05:29:53.116Z,45.80
2018-04-13T05:30:55.617Z,45.70
2018-04-13T05:31:58.106Z,45.70
2018-04-13T05:33:00.699Z,45.70
2018-04-13T05:34:03.973Z,45.60
2018-04-13T05:35:07.334Z,45.70
2018-04-13T05:36:09.807Z,45.70
2018-04-13T05:37:12.312Z,45.60
2018-04-13T05:38:14.821Z,45.60
2018-04-13T05:39:17.320Z,45.60
2018-04-13T05:40:20.585Z,45.60
2018-04-13T05:41:23.182Z,45.50
2018-04-13T05:42:25.748Z,45.50
2018-04-13T05:43:29.035Z,45.40
2018-04-13T05:44:31.567Z,45.40
2018-04-13T05:45:35.627Z,45.30
2018-04-13T05:46:38.168Z,45.30
2018-04-13T05:47:40.727Z,45.20
2018-04-13T05:48:44.062Z,45.20
2018-04-13T05:49:46.576Z,45.20
2018-04-13T05:50:49.859Z,45.10
2018-04-13T05:51:53.155Z,45.10
2018-04-13T05:52:55.647Z,45.10
2018-04-13T05:53:58.138Z,45.00
2018-04-13T05:55:00.640Z,45.00
2018-04-13T05:56:03.993Z,44.90
2018-04-13T05:57:06.598Z,44.90
2018-04-13T05:58:09.876Z,44.80
2018-04-13T05:59:13.139Z,44.90
2018-04-13T06:00:16.439Z,44.80
2018-04-13T06:01:19.715Z,44.80
2018-04-13T06:02:23.004Z,44.80
2018-04-13T06:03:26.266Z,44.70
2018-04-13T06:04:28.757Z,44.70
2018-04-13T06:05:32.032Z,44.70
2018-04-13T06:06:35.342Z,44.70
2018-04-13T06:07:37.882Z,44.70
2018-04-13T06:08:41.160Z,44.70
2018-04-13T06:09:43.667Z,44.60
2018-04-13T06:10:46.177Z,44.60
2018-04-13T06:11:48.687Z,44.50
2018-04-13T06:12:51.194Z,44.50
2018-04-13T06:13:53.698Z,44.50
2018-04-13T06:14:56.265Z,44.50
2018-04-13T06:15:59.637Z,44.40
2018-04-13T06:17:02.237Z,44.40
2018-04-13T06:18:04.786Z,44.40
2018-04-13T06:19:08.116Z,44.30
2018-04-13T06:20:10.655Z,44.30
2018-04-13T06:21:13.153Z,44.30
2018-04-13T06:22:15.677Z,44.20
2018-04-13T06:23:18.174Z,44.20
2018-04-13T06:24:20.711Z,44.20
2018-04-13T06:25:23.978Z,44.10
2018-04-13T06:26:27.247Z,44.10
2018-04-13T06:27:29.859Z,44.10
2018-04-13T06:28:32.357Z,44.10
2018-04-13T06:29:34.918Z,44.10
2018-04-13T06:30:37.384Z,44.10
2018-04-13T06:31:39.878Z,44.00
2018-04-13T06:32:43.139Z,44.20
2018-04-13T06:33:45.634Z,44.00
2018-04-13T06:34:48.935Z,43.90
2018-04-13T06:35:51.486Z,43.90
2018-04-13T06:36:55.124Z,43.90
2018-04-13T06:37:58.070Z,44.00
2018-04-13T06:39:00.598Z,44.00
2018-04-13T06:40:03.894Z,45.20
2018-04-13T06:41:07.223Z,46.00
2018-04-13T06:42:09.727Z,45.50
2018-04-13T06:43:12.223Z,45.80
2018-04-13T06:44:14.750Z,45.90
2018-04-13T06:45:17.260Z,46.10
2018-04-13T06:46:19.781Z,46.30
2018-04-13T06:47:22.402Z,46.70
2018-04-13T06:48:24.924Z,46.50
2018-04-13T06:49:27.534Z,46.70
2018-04-13T06:50:30.060Z,46.90
2018-04-13T06:51:32.586Z,47.20
2018-04-13T06:52:35.091Z,47.10
2018-04-13T06:53:37.610Z,46.90
2018-04-13T06:54:40.108Z,46.90
2018-04-13T06:55:42.609Z,46.90
2018-04-13T06:56:45.915Z,46.80
2018-04-13T06:57:48.403Z,46.80
2018-04-13T06:58:50.922Z,46.50
2018-04-13T06:59:54.208Z,46.30
2018-04-13T07:00:57.482Z,46.00
2018-04-13T07:02:00.770Z,46.10
2018-04-13T07:03:04.068Z,46.00
2018-04-13T07:04:06.590Z,45.90
2018-04-13T07:05:09.122Z,45.90
2018-04-13T07:06:11.630Z,45.70
2018-04-13T07:07:14.146Z,45.90
2018-04-13T07:08:16.676Z,46.00
2018-04-13T07:09:19.164Z,46.00
2018-04-13T07:10:21.717Z,46.50
2018-04-13T07:11:24.982Z,45.60
2018-04-13T07:12:27.573Z,45.60
2018-04-13T07:13:30.878Z,45.50
2018-04-13T07:14:33.384Z,45.50
2018-04-13T07:15:35.913Z,45.50
2018-04-13T07:16:38.479Z,45.60
2018-04-13T07:17:40.994Z,45.70
2018-04-13T07:18:43.575Z,45.90
2018-04-13T07:19:48.002Z,46.00
2018-04-13T07:20:50.582Z,45.80
2018-04-13T07:21:53.086Z,45.70
2018-04-13T07:22:55.587Z,45.70
2018-04-13T07:23:58.861Z,44.70
2018-04-13T07:25:02.134Z,45.10
2018-04-13T07:26:06.150Z,45.30
2018-04-13T07:27:09.455Z,45.40
2018-04-13T07:28:11.962Z,45.40
2018-04-13T07:29:14.492Z,45.60
2018-04-13T07:30:16.981Z,45.80
2018-04-13T07:31:19.519Z,45.60
2018-04-13T07:32:22.091Z,45.60
2018-04-13T07:33:24.619Z,45.40
2018-04-13T07:34:27.117Z,45.40
2018-04-13T07:35:29.682Z,45.10
2018-04-13T07:36:32.230Z,48.00
2018-04-13T07:37:35.499Z,50.70
2018-04-13T07:38:38.006Z,50.50
2018-04-13T07:39:40.538Z,50.10
2018-04-13T07:40:43.810Z,49.50
2018-04-13T07:41:46.319Z,49.30
2018-04-13T07:42:48.822Z,48.80
2018-04-13T07:43:51.326Z,48.40
2018-04-13T07:44:54.641Z,47.80
2018-04-13T07:45:57.128Z,47.80
2018-04-13T07:46:59.638Z,48.40
2018-04-13T07:48:02.919Z,43.90
2018-04-13T07:49:06.207Z,44.40
2018-04-13T07:50:09.489Z,43.40
2018-04-13T07:51:12.800Z,42.80
2018-04-13T07:52:15.340Z,42.80
2018-04-13T07:53:18.618Z,43.10
2018-04-13T07:54:21.906Z,43.00
2018-04-13T07:55:25.182Z,43.20
2018-04-13T07:56:28.459Z,43.00
2018-04-13T07:57:30.960Z,42.90
2018-04-13T07:58:33.452Z,43.10
2018-04-13T07:59:35.949Z,43.00
2018-04-13T08:00:38.465Z,42.50
2018-04-13T08:01:41.002Z,42.70
2018-04-13T08:02:43.577Z,42.50
2018-04-13T08:03:46.145Z,42.60
2018-04-13T08:04:48.663Z,43.10
2018-04-13T08:05:51.422Z,43.00
2018-04-13T08:06:53.692Z,43.00
2018-04-13T08:07:56.211Z,43.00
2018-04-13T08:08:58.702Z,42.80
2018-04-13T08:10:01.205Z,42.90
2018-04-13T08:11:03.725Z,42.90
2018-04-13T08:12:06.271Z,43.20
2018-04-13T08:13:08.783Z,43.10
2018-04-13T08:14:11.430Z,42.80
2018-04-13T08:15:13.820Z,43.00
2018-04-13T08:16:16.362Z,43.20
2018-04-13T08:17:18.858Z,43.30
2018-04-13T08:18:21.463Z,43.40
2018-04-13T08:19:23.977Z,43.70
2018-04-13T08:20:26.486Z,43.40
2018-04-13T08:21:29.770Z,43.80
2018-04-13T08:22:32.292Z,43.70
2018-04-13T08:23:34.838Z,44.20
2018-04-13T08:24:37.338Z,44.00
2018-04-13T08:25:39.849Z,44.20
2018-04-13T08:26:43.222Z,44.00
2018-04-13T08:27:45.754Z,44.00
2018-04-13T08:28:48.288Z,44.00
2018-04-13T08:29:50.801Z,44.20
2018-04-13T08:30:54.109Z,44.10
2018-04-13T08:31:56.610Z,44.10
2018-04-13T08:32:59.177Z,44.00
2018-04-13T08:34:01.670Z,44.00
2018-04-13T08:35:04.175Z,44.20
2018-04-13T08:36:06.680Z,44.40
2018-04-13T08:37:09.287Z,44.20
2018-04-13T08:38:12.556Z,44.70
2018-04-13T08:39:15.862Z,45.40
2018-04-13T08:40:18.382Z,44.70
2018-04-13T08:41:21.000Z,44.60
2018-04-13T08:42:23.503Z,44.90
2018-04-13T08:43:26.101Z,45.00
2018-04-13T08:44:28.591Z,45.20
2018-04-13T08:45:31.102Z,45.80
2018-04-13T08:46:33.656Z,46.80
2018-04-13T08:47:36.144Z,46.90
2018-04-13T08:48:38.747Z,46.90
2018-04-13T08:49:41.210Z,47.10
2018-04-13T08:50:44.510Z,45.10
2018-04-13T08:51:47.006Z,45.10
2018-04-13T08:52:49.650Z,44.70
2018-04-13T08:53:52.211Z,44.70
2018-04-13T08:54:54.721Z,45.20
2018-04-13T08:55:57.270Z,45.60
2018-04-13T08:56:59.811Z,45.90
2018-04-13T08:58:02.326Z,46.00
2018-04-13T08:59:04.836Z,46.20
2018-04-13T09:00:07.352Z,46.90
2018-04-13T09:01:09.849Z,46.60
2018-04-13T09:02:13.112Z,47.00
2018-04-13T09:03:15.615Z,46.90
2018-04-13T09:04:18.123Z,46.20
2018-04-13T09:05:20.631Z,46.90
2018-04-13T09:06:23.930Z,46.40
2018-04-13T09:07:27.218Z,46.30
2018-04-13T09:08:29.758Z,46.20
2018-04-13T09:09:33.030Z,46.30
2018-04-13T09:10:36.319Z,46.70
2018-04-13T09:11:39.582Z,47.10
2018-04-13T09:12:42.090Z,46.60
2018-04-13T09:13:44.667Z,46.60
2018-04-13T09:14:48.042Z,46.60
2018-04-13T09:15:50.594Z,46.50
2018-04-13T09:16:53.918Z,46.60
2018-04-13T09:17:56.402Z,46.60
2018-04-13T09:18:58.897Z,46.60
2018-04-13T09:20:01.564Z,46.60
2018-04-13T09:21:04.079Z,46.60
2018-04-13T09:22:06.587Z,46.60
2018-04-13T09:23:09.193Z,46.60
2018-04-13T09:24:11.739Z,46.60
2018-04-13T09:25:15.015Z,46.60
2018-04-13T09:26:17.602Z,47.20
2018-04-13T09:27:20.886Z,47.10
2018-04-13T09:28:23.388Z,47.10
2018-04-13T09:29:25.880Z,46.70
2018-04-13T09:30:28.381Z,46.80
2018-04-13T09:31:32.395Z,46.90
2018-04-13T09:32:35.055Z,46.90
2018-04-13T09:33:37.582Z,46.80
2018-04-13T09:34:40.085Z,45.80
2018-04-13T09:35:42.578Z,46.10
2018-04-13T09:36:45.105Z,45.90
2018-04-13T09:37:48.379Z,46.10
2018-04-13T09:38:51.669Z,46.10
2018-04-13T09:39:54.975Z,46.00
2018-04-13T09:40:57.480Z,45.80
2018-04-13T09:42:00.098Z,45.40
2018-04-13T09:43:02.607Z,45.70
2018-04-13T09:44:05.132Z,45.50
2018-04-13T09:45:07.626Z,45.50
2018-04-13T09:46:10.140Z,46.60
2018-04-13T09:47:13.406Z,45.30
2018-04-13T09:48:15.931Z,45.30
2018-04-13T09:49:18.450Z,46.50
2018-04-13T09:50:20.962Z,45.70
2018-04-13T09:51:23.497Z,45.50
2018-04-13T09:52:26.759Z,45.40
2018-04-13T09:53:30.794Z,45.80
2018-04-13T09:54:33.298Z,45.70
2018-04-13T09:55:35.808Z,45.20
2018-04-13T09:56:39.130Z,45.90
2018-04-13T09:57:41.784Z,45.90
2018-04-13T09:58:44.345Z,45.50
2018-04-13T09:59:46.848Z,45.30
2018-04-13T10:00:55.064Z,45.50
2018-04-13T10:02:01.051Z,45.80
2018-04-13T10:03:03.665Z,45.70
2018-04-13T10:04:06.267Z,46.40
2018-04-13T10:05:15.181Z,45.90
2018-04-13T10:06:18.483Z,45.70
2018-04-13T10:07:20.993Z,45.70
2018-04-13T10:08:23.502Z,45.90
2018-04-13T10:09:26.782Z,46.20
2018-04-13T10:10:30.062Z,45.80
2018-04-13T10:11:33.342Z,46.20
2018-04-13T10:12:36.601Z,45.00
2018-04-13T10:13:39.096Z,45.20
2018-04-13T10:14:42.367Z,45.30
2018-04-13T10:15:44.895Z,45.20
2018-04-13T10:16:48.243Z,45.20
2018-04-13T10:17:51.526Z,46.00
2018-04-13T10:18:54.027Z,46.00
2018-04-13T10:19:56.534Z,45.60
2018-04-13T10:20:59.802Z,45.60
2018-04-13T10:22:02.310Z,45.60
2018-04-13T10:23:04.832Z,45.50
2018-04-13T10:24:07.345Z,45.60
2018-04-13T10:25:09.854Z,46.90
2018-04-13T10:26:12.378Z,46.60
2018-04-13T10:27:14.963Z,46.80
2018-04-13T10:28:17.579Z,46.60
2018-04-13T10:29:20.867Z,46.80
2018-04-13T10:30:24.296Z,46.10
2018-04-13T10:31:26.811Z,46.10
2018-04-13T10:32:29.319Z,46.80
2018-04-13T10:33:31.827Z,46.80
2018-04-13T10:34:34.348Z,46.80
2018-04-13T10:35:36.853Z,46.80
2018-04-13T10:36:39.477Z,46.80
2018-04-13T10:37:41.978Z,46.80
2018-04-13T10:38:44.611Z,46.70
2018-04-13T10:39:47.126Z,46.70
2018-04-13T10:40:49.659Z,46.70
2018-04-13T10:41:52.184Z,46.70
2018-04-13T10:42:55.460Z,46.70
2018-04-13T10:43:58.733Z,46.70
2018-04-13T10:45:01.240Z,46.70
2018-04-13T10:46:03.807Z,47.30
2018-04-13T10:47:06.379Z,46.90
2018-04-13T10:48:08.903Z,46.90
2018-04-13T10:49:11.688Z,46.90
2018-04-13T10:50:14.958Z,47.10
2018-04-13T10:51:17.595Z,47.20
2018-04-13T10:52:20.145Z,47.50
2018-04-13T10:53:22.711Z,47.20
2018-04-13T10:54:25.219Z,47.30
2018-04-13T10:55:27.711Z,47.30
2018-04-13T10:56:30.974Z,47.10
2018-04-13T10:57:33.477Z,47.10
2018-04-13T10:58:35.998Z,47.50
2018-04-13T10:59:39.295Z,48.10
2018-04-13T11:00:42.593Z,48.20
2018-04-13T11:01:45.090Z,48.20
2018-04-13T11:02:47.601Z,47.90
2018-04-13T11:03:50.899Z,48.10
2018-04-13T11:04:54.224Z,47.60
2018-04-13T11:05:56.749Z,47.60
2018-04-13T11:07:00.038Z,47.80
2018-04-13T11:08:03.318Z,48.20
2018-04-13T11:09:05.902Z,48.10
2018-04-13T11:10:08.409Z,48.50
2018-04-13T11:11:10.904Z,48.20
2018-04-13T11:12:14.166Z,48.40
2018-04-13T11:13:16.662Z,48.40
2018-04-13T11:14:19.946Z,48.20
2018-04-13T11:15:23.220Z,48.30
2018-04-13T11:16:26.491Z,48.40
2018-04-13T11:17:29.016Z,48.30
2018-04-13T11:18:31.527Z,48.50
2018-04-13T11:19:34.042Z,48.30
2018-04-13T11:20:36.550Z,49.00
2018-04-13T11:21:39.050Z,48.20
2018-04-13T11:22:41.548Z,48.60
2018-04-13T11:23:44.038Z,48.60
2018-04-13T11:24:46.548Z,48.20
2018-04-13T11:27:17.442Z,48.50
2018-04-13T11:28:19.979Z,48.70
2018-04-13T11:29:22.477Z,48.60
2018-04-13T11:30:25.030Z,48.60
2018-04-13T11:31:28.310Z,48.60
2018-04-13T11:32:31.600Z,48.60
2018-04-13T11:33:34.901Z,48.80
2018-04-13T11:34:37.406Z,48.80
2018-04-13T11:35:39.927Z,48.60
2018-04-13T11:36:42.426Z,48.80
2018-04-13T11:37:44.938Z,48.80
2018-04-13T11:38:48.246Z,49.50
2018-04-13T11:39:50.770Z,48.80
2018-04-13T11:40:53.371Z,49.00
2018-04-13T11:41:55.938Z,48.90
2018-04-13T11:42:58.440Z,49.00
2018-04-13T11:44:00.944Z,49.10
2018-04-13T11:45:03.443Z,49.10
2018-04-13T11:46:05.968Z,49.20
2018-04-13T11:47:08.475Z,49.40
2018-04-13T11:48:11.013Z,49.40
2018-04-13T11:49:14.277Z,49.50
2018-04-13T11:50:16.783Z,49.40
2018-04-13T11:51:19.344Z,49.40
2018-04-13T11:52:21.856Z,49.20
2018-04-13T11:53:24.491Z,49.30
2018-04-13T11:54:27.063Z,49.40
2018-04-13T11:55:29.584Z,49.40
2018-04-13T11:56:32.190Z,49.60
2018-04-13T11:57:34.741Z,49.60
2018-04-13T11:58:37.271Z,49.60
2018-04-13T11:59:39.767Z,49.80
2018-04-13T12:00:43.065Z,49.80
2018-04-13T12:01:45.560Z,49.70
2018-04-13T12:02:48.063Z,49.70
2018-04-13T12:03:51.383Z,50.00
2018-04-13T12:04:53.950Z,49.80
2018-04-13T12:05:56.462Z,50.00
2018-04-13T12:06:59.063Z,50.10
2018-04-13T12:08:02.359Z,50.20
2018-04-13T12:09:05.920Z,50.20
2018-04-13T12:10:09.345Z,50.50
2018-04-13T12:11:11.881Z,50.50
2018-04-13T12:12:15.188Z,50.50
2018-04-13T12:13:17.714Z,50.50
2018-04-13T12:14:20.213Z,50.50
2018-04-13T12:15:22.718Z,50.60
2018-04-13T12:16:25.216Z,50.60
2018-04-13T12:17:27.745Z,50.70
2018-04-13T12:18:30.250Z,51.30
2018-04-13T12:19:32.758Z,50.80
2018-04-13T12:20:35.297Z,50.90
2018-04-13T12:21:38.597Z,51.20
2018-04-13T12:22:41.118Z,51.20
2018-04-13T12:23:43.619Z,51.10
2018-04-13T12:24:46.150Z,51.10
2018-04-13T12:25:48.674Z,51.30
2018-04-13T12:26:51.170Z,51.20
2018-04-13T12:27:53.699Z,51.40
2018-04-13T12:28:56.244Z,51.40
2018-04-13T12:29:59.645Z,51.60
2018-04-13T12:31:02.520Z,51.60
2018-04-13T12:32:05.016Z,51.50
2018-04-13T12:33:07.539Z,51.80
2018-04-13T12:34:10.100Z,51.70
2018-04-13T12:35:13.384Z,51.60
2018-04-13T12:36:16.658Z,51.70
2018-04-13T12:37:19.947Z,51.70
2018-04-13T12:38:23.494Z,51.80
2018-04-13T12:39:25.971Z,51.80
2018-04-13T12:40:28.474Z,52.00
2018-04-13T12:41:31.043Z,51.80
2018-04-13T12:42:33.542Z,51.70
2018-04-13T12:43:36.061Z,51.70
2018-04-13T12:44:39.368Z,52.00
2018-04-13T12:45:41.898Z,52.00
2018-04-13T12:46:44.447Z,52.10
2018-04-13T12:47:48.468Z,52.40
2018-04-13T12:48:51.776Z,52.30
2018-04-13T12:49:54.347Z,52.30
2018-04-13T12:50:56.864Z,52.30
2018-04-13T12:51:59.362Z,52.10
2018-04-13T12:53:02.635Z,52.40
2018-04-13T12:54:05.909Z,52.30
2018-04-13T12:55:08.650Z,52.30
2018-04-13T12:56:10.916Z,52.20
2018-04-13T12:57:13.432Z,52.10
2018-04-13T12:58:16.189Z,52.20
2018-04-13T12:59:19.527Z,52.40
2018-04-13T13:00:22.065Z,52.40
2018-04-13T13:01:24.734Z,52.30
2018-04-13T13:02:27.238Z,52.30
2018-04-13T13:03:29.771Z,52.30
2018-04-13T13:04:32.317Z,52.30
2018-04-13T13:05:34.898Z,52.50
2018-04-13T13:06:37.406Z,52.30
2018-04-13T13:07:39.932Z,52.30
2018-04-13T13:08:42.538Z,52.30
2018-04-13T13:09:45.074Z,52.50
2018-04-13T13:10:47.603Z,52.40
2018-04-13T13:11:51.118Z,52.30
2018-04-13T13:12:53.995Z,52.30
2018-04-13T13:13:56.543Z,52.20
2018-04-13T13:14:59.110Z,52.30
2018-04-13T13:16:02.413Z,52.30
2018-04-13T13:17:04.939Z,52.30
2018-04-13T13:18:08.202Z,53.00
2018-04-13T13:19:10.710Z,52.40
2018-04-13T13:20:13.254Z,52.70
2018-04-13T13:21:16.549Z,53.50
2018-04-13T13:22:19.850Z,52.90
2018-04-13T13:23:22.361Z,52.90
2018-04-13T13:24:24.892Z,52.90
2018-04-13T13:25:27.419Z,53.10
2018-04-13T13:26:30.770Z,53.00
2018-04-13T13:27:33.279Z,53.00
2018-04-13T13:28:36.582Z,53.00
2018-04-13T13:29:39.091Z,53.00
2018-04-13T13:30:41.621Z,52.90
2018-04-13T13:31:44.150Z,52.80